createdAt,value
2019-02-17T00:00:46.125Z,73.31
2019-02-17T00:03:15.904Z,73.29
2019-02-17T00:05:45.569Z,73.29
2019-02-17T00:08:15.388Z,73.42
2019-02-17T00:10:45.073Z,73.49
2019-02-17T00:13:14.764Z,73.60
2019-02-17T00:15:44.697Z,73.60
2019-02-17T00:18:14.365Z,73.70
2019-02-17T00:20:44.342Z,73.63
2019-02-17T00:23:14.032Z,73.56
2019-02-17T00:25:43.726Z,73.52
2019-02-17T00:28:13.385Z,73.56
2019-02-17T00:30:43.051Z,73.68
2019-02-17T00:33:12.733Z,73.66
2019-02-17T00:35:42.671Z,73.59
2019-02-17T00:38:12.342Z,73.47
2019-02-17T00:40:42.012Z,73.50
2019-02-17T00:43:11.932Z,73.53
2019-02-17T00:45:41.680Z,73.95
2019-02-17T00:48:11.421Z,73.79
2019-02-17T00:50:41.564Z,73.79
2019-02-17T00:53:11.257Z,73.73
2019-02-17T00:55:40.913Z,73.70
2019-02-17T00:58:10.584Z,73.89
2019-02-17T01:00:40.261Z,74.11
2019-02-17T01:03:09.932Z,74.11
2019-02-17T01:05:39.619Z,74.13
2019-02-17T01:08:09.589Z,74.22
2019-02-17T01:10:39.269Z,74.31
2019-02-17T01:13:08.933Z,74.33
2019-02-17T01:15:38.690Z,74.31
2019-02-17T01:18:08.390Z,74.30
2019-02-17T01:20:38.051Z,74.80
2019-02-17T01:23:07.764Z,74.68
2019-02-17T01:25:37.448Z,74.57
2019-02-17T01:28:07.153Z,74.51
2019-02-17T01:30:36.856Z,74.38
2019-02-17T01:33:06.553Z,74.29
2019-02-17T01:35:36.234Z,74.23
2019-02-17T01:38:06.014Z,74.18
2019-02-17T01:40:35.692Z,74.19
2019-02-17T01:43:05.513Z,74.16
2019-02-17T01:45:35.188Z,74.14
2019-02-17T01:48:05.139Z,74.14
2019-02-17T01:50:34.810Z,74.06
2019-02-17T01:53:05.304Z,74.00
2019-02-17T01:55:34.986Z,73.97
2019-02-17T01:58:05.177Z,73.90
2019-02-17T02:00:34.851Z,73.86
2019-02-17T02:03:05.391Z,73.88
2019-02-17T02:05:35.068Z,73.90
2019-02-17T02:08:05.246Z,74.03
2019-02-17T02:10:34.925Z,74.09
2019-02-17T02:13:05.474Z,74.14
2019-02-17T02:15:35.144Z,74.08
2019-02-17T02:18:04.888Z,74.16
2019-02-17T02:20:34.560Z,74.20
2019-02-17T02:23:04.973Z,74.11
2019-02-17T02:25:34.705Z,74.08
2019-02-17T02:28:05.056Z,74.05
2019-02-17T02:30:34.738Z,74.07
2019-02-17T02:33:04.712Z,74.05
2019-02-17T02:35:34.393Z,73.95
2019-02-17T02:38:04.899Z,74.75
2019-02-17T02:40:34.571Z,75.11
2019-02-17T02:43:05.140Z,74.93
2019-02-17T02:45:34.813Z,74.77
2019-02-17T02:48:05.595Z,74.59
2019-02-17T02:50:35.262Z,74.49
2019-02-17T02:53:04.952Z,74.47
2019-02-17T02:55:34.620Z,74.70
2019-02-17T02:58:05.175Z,74.74
2019-02-17T03:00:34.932Z,74.62
2019-02-17T03:03:05.308Z,74.51
2019-02-17T03:05:36.696Z,74.35
2019-02-17T03:08:06.365Z,74.29
2019-02-17T03:10:36.029Z,74.37
2019-02-17T03:13:05.722Z,74.48
2019-02-17T03:15:35.385Z,74.54
2019-02-17T03:18:05.191Z,74.59
2019-02-17T03:20:34.869Z,74.68
2019-02-17T03:23:05.316Z,74.68
2019-02-17T03:25:35.030Z,74.60
2019-02-17T03:28:04.786Z,74.72
2019-02-17T03:30:34.458Z,74.62
2019-02-17T03:33:05.003Z,74.57
2019-02-17T03:35:34.665Z,74.54
2019-02-17T03:38:05.126Z,74.54
2019-02-17T03:40:35.273Z,74.57
2019-02-17T03:43:05.273Z,74.58
2019-02-17T03:45:34.941Z,74.55
2019-02-17T03:48:05.032Z,74.50
2019-02-17T03:50:34.963Z,74.46
2019-02-17T03:53:05.009Z,75.06
2019-02-17T03:55:34.954Z,74.70
2019-02-17T03:58:05.154Z,74.42
2019-02-17T04:00:34.842Z,74.24
2019-02-17T04:03:04.710Z,74.11
2019-02-17T04:05:34.381Z,73.99
2019-02-17T04:08:04.956Z,73.92
2019-02-17T04:10:34.619Z,73.87
2019-02-17T04:13:04.974Z,73.84
2019-02-17T04:15:34.720Z,73.91
2019-02-17T04:18:05.349Z,73.98
2019-02-17T04:20:35.096Z,74.03
2019-02-17T04:23:05.021Z,74.02
2019-02-17T04:25:34.681Z,74.02
2019-02-17T04:28:05.108Z,74.11
2019-02-17T04:30:34.783Z,74.13
2019-02-17T04:33:05.036Z,74.25
2019-02-17T04:35:34.706Z,74.27
2019-02-17T04:38:05.121Z,74.36
2019-02-17T04:40:34.848Z,74.54
2019-02-17T04:43:05.000Z,74.69
2019-02-17T04:45:34.665Z,74.67
2019-02-17T04:48:05.100Z,74.65
2019-02-17T04:50:35.004Z,74.69
2019-02-17T04:53:05.173Z,74.71
2019-02-17T04:55:34.836Z,74.71
2019-02-17T04:58:04.728Z,74.67
2019-02-17T05:00:40.125Z,74.64
2019-02-17T05:03:05.774Z,74.71
2019-02-17T05:05:35.716Z,74.78
2019-02-17T05:08:05.390Z,74.89
2019-02-17T05:10:35.071Z,74.87
2019-02-17T05:13:05.561Z,75.02
2019-02-17T05:15:35.236Z,75.13
2019-02-17T05:18:04.898Z,75.16
2019-02-17T05:20:34.568Z,75.10
2019-02-17T05:23:05.088Z,75.08
2019-02-17T05:25:34.761Z,75.10
2019-02-17T05:28:05.220Z,75.17
2019-02-17T05:30:34.898Z,75.21
2019-02-17T05:33:04.761Z,75.33
2019-02-17T05:35:34.675Z,75.38
2019-02-17T05:38:04.888Z,75.26
2019-02-17T05:40:36.614Z,75.13
2019-02-17T05:43:06.141Z,74.79
2019-02-17T05:45:36.058Z,74.79
2019-02-17T05:48:05.766Z,75.03
2019-02-17T05:50:35.428Z,74.98
2019-02-17T05:53:05.115Z,74.92
2019-02-17T05:55:34.798Z,74.88
2019-02-17T05:58:05.012Z,74.90
2019-02-17T06:00:36.279Z,74.81
2019-02-17T06:03:06.208Z,74.76
2019-02-17T06:05:36.105Z,74.73
2019-02-17T06:08:05.860Z,74.77
2019-02-17T06:10:35.552Z,74.84
2019-02-17T06:13:05.218Z,74.90
2019-02-17T06:15:34.897Z,74.87
2019-02-17T06:18:05.328Z,74.86
2019-02-17T06:20:35.007Z,74.76
2019-02-17T06:23:05.530Z,74.70
2019-02-17T06:25:36.187Z,74.73
2019-02-17T06:28:05.858Z,74.74
2019-02-17T06:30:35.543Z,74.69
2019-02-17T06:33:05.465Z,74.71
2019-02-17T06:35:35.142Z,74.64
2019-02-17T06:38:05.128Z,74.66
2019-02-17T06:40:34.965Z,74.57
2019-02-17T06:43:04.745Z,74.54
2019-02-17T06:45:34.427Z,74.62
2019-02-17T06:48:04.916Z,74.81
2019-02-17T06:50:34.689Z,74.91
2019-02-17T06:53:05.054Z,74.82
2019-02-17T06:55:45.280Z,74.74
2019-02-17T06:58:15.349Z,74.75
2019-02-17T07:00:50.309Z,74.79
2019-02-17T07:03:20.171Z,74.80
2019-02-17T07:06:12.012Z,74.76
2019-02-17T07:08:41.788Z,74.77
2019-02-17T07:11:11.539Z,74.73
2019-02-17T07:13:41.201Z,74.76
2019-02-17T07:16:10.887Z,74.77
2019-02-17T07:18:40.555Z,74.85
2019-02-17T07:21:11.265Z,74.88
2019-02-17T07:23:40.928Z,74.95
2019-02-17T07:26:10.605Z,75.02
2019-02-17T07:28:40.272Z,75.09
2019-02-17T07:31:09.947Z,75.11
2019-02-17T07:33:39.623Z,75.14
2019-02-17T07:36:09.295Z,75.16
2019-02-17T07:38:38.969Z,75.18
2019-02-17T07:41:08.643Z,75.25
2019-02-17T07:43:38.478Z,75.39
2019-02-17T07:46:08.145Z,75.45
2019-02-17T07:48:37.827Z,75.39
2019-02-17T07:51:07.546Z,75.51
2019-02-17T07:53:37.212Z,75.35
2019-02-17T07:56:07.196Z,75.44
2019-02-17T07:58:36.894Z,75.47
2019-02-17T08:01:07.344Z,75.54
2019-02-17T08:03:37.029Z,75.63
2019-02-17T08:06:06.698Z,75.67
2019-02-17T08:08:36.379Z,75.67
2019-02-17T08:11:06.064Z,75.80
2019-02-17T08:13:35.723Z,75.94
2019-02-17T08:16:05.627Z,76.16
2019-02-17T08:18:35.313Z,76.19
2019-02-17T08:21:05.251Z,76.21
2019-02-17T08:23:34.920Z,76.40
2019-02-17T08:26:04.883Z,76.42
2019-02-17T08:28:34.564Z,76.46
2019-02-17T08:31:04.242Z,76.54
2019-02-17T08:33:33.915Z,76.59
2019-02-17T08:36:03.591Z,76.59
2019-02-17T08:38:33.526Z,76.85
2019-02-17T08:41:03.207Z,77.18
2019-02-17T08:43:32.897Z,77.54
2019-02-17T08:46:02.576Z,77.57
2019-02-17T08:48:32.488Z,77.93
2019-02-17T08:51:02.152Z,78.11
2019-02-17T08:53:31.841Z,78.36
2019-02-17T08:56:01.519Z,78.52
2019-02-17T08:58:31.189Z,78.67
2019-02-17T09:01:00.885Z,78.81
2019-02-17T09:03:30.980Z,79.19
2019-02-17T09:06:00.751Z,79.81
2019-02-17T09:08:30.414Z,80.28
2019-02-17T09:11:00.160Z,80.79
2019-02-17T09:13:30.023Z,81.64
2019-02-17T09:15:59.688Z,81.78
2019-02-17T09:18:29.587Z,81.92
2019-02-17T09:20:59.260Z,81.57
2019-02-17T09:23:28.925Z,80.93
2019-02-17T09:25:58.606Z,80.56
2019-02-17T09:28:28.273Z,80.75
2019-02-17T09:30:58.913Z,80.67
2019-02-17T09:33:28.621Z,80.49
2019-02-17T09:35:58.299Z,80.43
2019-02-17T09:38:28.148Z,79.82
2019-02-17T09:40:57.822Z,79.77
2019-02-17T09:43:27.489Z,79.56
2019-02-17T09:45:57.169Z,79.25
2019-02-17T09:48:26.907Z,79.23
2019-02-17T09:50:56.580Z,79.13
2019-02-17T09:53:26.433Z,78.88
2019-02-17T09:55:56.112Z,78.03
2019-02-17T09:58:26.059Z,76.62
2019-02-17T10:00:55.734Z,75.81
2019-02-17T10:03:25.404Z,75.29
2019-02-17T10:05:55.080Z,74.31
2019-02-17T10:08:24.763Z,74.01
2019-02-17T10:10:54.448Z,73.78
2019-02-17T10:13:24.155Z,73.57
2019-02-17T10:15:53.797Z,73.59
2019-02-17T10:18:23.467Z,73.18
2019-02-17T10:20:53.135Z,72.80
2019-02-17T10:23:22.814Z,72.51
2019-02-17T10:25:52.481Z,71.69
2019-02-17T10:28:22.153Z,71.06
2019-02-17T10:30:51.904Z,70.95
2019-02-17T10:33:21.667Z,69.77
2019-02-17T10:35:51.632Z,69.20
2019-02-17T10:38:21.385Z,69.25
2019-02-17T10:40:51.060Z,68.93
2019-02-17T10:43:20.914Z,69.13
2019-02-17T10:45:50.834Z,68.70
2019-02-17T10:48:20.528Z,68.70
2019-02-17T10:50:50.222Z,68.46
2019-02-17T10:53:19.934Z,67.71
2019-02-17T10:55:49.606Z,67.54
2019-02-17T10:58:19.287Z,66.97
2019-02-17T11:00:48.975Z,66.76
2019-02-17T11:03:18.725Z,66.30
2019-02-17T11:05:48.621Z,66.03
2019-02-17T11:08:18.302Z,65.33
2019-02-17T11:10:48.001Z,64.19
2019-02-17T11:13:18.649Z,64.38
2019-02-17T11:15:48.326Z,64.29
2019-02-17T11:18:18.034Z,63.56
2019-02-17T11:20:47.712Z,63.29
2019-02-17T11:23:17.665Z,62.68
2019-02-17T11:25:47.521Z,61.95
2019-02-17T11:28:17.195Z,61.68
2019-02-17T11:30:46.910Z,60.55
2019-02-17T11:33:16.586Z,60.90
2019-02-17T11:35:46.241Z,60.54
2019-02-17T11:38:15.922Z,58.34
2019-02-17T11:40:45.585Z,57.73
2019-02-17T11:43:15.282Z,56.43
2019-02-17T11:45:45.025Z,56.66
2019-02-17T11:48:14.704Z,55.91
2019-02-17T11:50:44.398Z,56.05
2019-02-17T11:53:14.088Z,54.74
2019-02-17T11:55:43.788Z,54.56
2019-02-17T11:58:13.705Z,53.27
2019-02-17T12:00:43.374Z,53.33
2019-02-17T12:03:13.242Z,53.18
2019-02-17T12:05:43.138Z,51.83
2019-02-17T12:08:12.798Z,52.21
2019-02-17T12:10:42.484Z,51.34
2019-02-17T12:13:12.414Z,49.69
2019-02-17T12:15:42.098Z,49.61
2019-02-17T12:18:12.044Z,49.46
2019-02-17T12:20:56.183Z,49.55
2019-02-17T12:23:30.277Z,48.35
2019-02-17T12:26:03.645Z,49.13
2019-02-17T12:28:43.279Z,47.07
2019-02-17T12:31:17.976Z,46.79
2019-02-17T12:33:47.676Z,46.57
2019-02-17T12:36:17.372Z,46.35
2019-02-17T12:38:47.042Z,46.07
2019-02-17T12:41:16.813Z,46.32
2019-02-17T12:43:46.729Z,46.23
2019-02-17T12:46:16.522Z,46.15
2019-02-17T12:48:46.209Z,45.94
2019-02-17T12:51:15.881Z,45.94
2019-02-17T12:53:47.801Z,45.70
2019-02-17T12:56:17.185Z,45.55
2019-02-17T12:58:47.028Z,45.15
2019-02-17T13:01:16.621Z,44.39
2019-02-17T13:03:46.309Z,44.41
2019-02-17T13:06:16.021Z,44.72
2019-02-17T13:08:45.699Z,44.50
2019-02-17T13:11:15.391Z,44.05
2019-02-17T13:13:45.073Z,43.16
2019-02-17T13:16:14.768Z,43.00
2019-02-17T13:18:44.452Z,42.25
2019-02-17T13:21:14.167Z,42.18
2019-02-17T13:23:43.847Z,42.30
2019-02-17T13:26:13.509Z,42.20
2019-02-17T13:28:43.197Z,42.43
2019-02-17T13:31:12.882Z,41.48
2019-02-17T13:33:42.810Z,41.39
2019-02-17T13:36:12.491Z,42.04
2019-02-17T13:38:42.469Z,41.52
2019-02-17T13:41:12.151Z,41.92
2019-02-17T13:43:42.054Z,41.92
2019-02-17T13:46:12.017Z,41.38
2019-02-17T13:48:41.947Z,41.58
2019-02-17T13:51:14.524Z,40.56
2019-02-17T13:53:44.433Z,41.08
2019-02-17T13:56:14.114Z,40.27
2019-02-17T13:58:44.057Z,40.18
2019-02-17T14:01:13.729Z,39.55
2019-02-17T14:03:48.963Z,40.19
2019-02-17T14:06:15.045Z,40.75
2019-02-17T14:08:44.710Z,40.62
2019-02-17T14:11:14.381Z,40.29
2019-02-17T14:13:44.065Z,39.61
2019-02-17T14:16:13.769Z,40.00
2019-02-17T14:18:43.437Z,40.18
2019-02-17T14:21:13.190Z,40.73
2019-02-17T14:23:43.116Z,40.52
2019-02-17T14:26:12.803Z,40.55
2019-02-17T14:28:42.589Z,40.70
2019-02-17T14:31:12.282Z,40.72
2019-02-17T14:33:42.070Z,41.15
2019-02-17T14:36:11.731Z,40.83
2019-02-17T14:38:41.412Z,41.10
2019-02-17T14:41:11.091Z,41.19
2019-02-17T14:43:40.956Z,41.66
2019-02-17T14:46:10.638Z,41.47
2019-02-17T14:48:40.557Z,41.75
2019-02-17T14:51:10.241Z,42.05
2019-02-17T14:53:40.169Z,42.48
2019-02-17T14:56:09.866Z,42.42
2019-02-17T14:58:39.538Z,42.29
2019-02-17T15:01:09.218Z,42.48
2019-02-17T15:03:38.902Z,42.92
2019-02-17T15:06:08.578Z,43.15
2019-02-17T15:08:38.262Z,43.30
2019-02-17T15:11:07.957Z,43.52
2019-02-17T15:13:37.621Z,43.51
2019-02-17T15:16:07.322Z,43.65
2019-02-17T15:18:36.999Z,43.92
2019-02-17T15:21:06.683Z,44.02
2019-02-17T15:23:36.633Z,44.47
2019-02-17T15:26:06.317Z,44.57
2019-02-17T15:28:36.000Z,44.76
2019-02-17T15:31:05.676Z,45.10
2019-02-17T15:33:35.345Z,45.45
2019-02-17T15:36:05.119Z,45.59
2019-02-17T15:38:46.107Z,45.47
2019-02-17T15:41:15.791Z,45.82
2019-02-17T15:43:45.707Z,46.03
2019-02-17T15:46:15.379Z,46.43
2019-02-17T15:48:45.063Z,46.58
2019-02-17T15:51:14.737Z,46.68
2019-02-17T15:53:44.415Z,46.35
2019-02-17T15:56:14.102Z,46.42
2019-02-17T15:58:45.043Z,46.54
2019-02-17T16:01:14.813Z,46.78
2019-02-17T16:03:45.057Z,47.06
2019-02-17T16:06:14.802Z,47.25
2019-02-17T16:08:44.477Z,47.65
2019-02-17T16:11:14.176Z,47.94
2019-02-17T16:13:43.850Z,48.36
2019-02-17T16:16:13.600Z,48.66
2019-02-17T16:18:43.263Z,48.75
2019-02-17T16:21:12.945Z,48.87
2019-02-17T16:23:42.670Z,48.97
2019-02-17T16:26:13.875Z,49.14
2019-02-17T16:28:43.630Z,49.45
2019-02-17T16:31:13.349Z,49.69
2019-02-17T16:33:43.027Z,50.00
2019-02-17T16:36:12.711Z,50.33
2019-02-17T16:38:42.413Z,50.52
2019-02-17T16:41:12.093Z,50.73
2019-02-17T16:43:42.022Z,50.98
2019-02-17T16:46:11.697Z,51.31
2019-02-17T16:48:41.607Z,51.60
2019-02-17T16:51:11.282Z,51.84
2019-02-17T16:53:41.212Z,52.15
2019-02-17T16:56:11.014Z,52.55
2019-02-17T16:58:40.769Z,52.79
2019-02-17T17:01:10.535Z,53.03
2019-02-17T17:03:40.481Z,53.38
2019-02-17T17:06:10.238Z,53.66
2019-02-17T17:08:39.934Z,53.95
2019-02-17T17:11:09.610Z,54.28
2019-02-17T17:13:39.294Z,54.65
2019-02-17T17:16:09.525Z,54.92
2019-02-17T17:18:39.466Z,55.32
2019-02-17T17:21:09.225Z,55.65
2019-02-17T17:23:39.089Z,56.08
2019-02-17T17:26:08.873Z,56.51
2019-02-17T17:28:38.548Z,56.97
2019-02-17T17:31:08.248Z,57.38
2019-02-17T17:33:37.908Z,57.78
2019-02-17T17:36:07.584Z,58.07
2019-02-17T17:38:37.277Z,58.37
2019-02-17T17:41:06.949Z,58.64
2019-02-17T17:43:36.634Z,58.91
2019-02-17T17:46:06.309Z,59.31
2019-02-17T17:48:37.179Z,59.59
2019-02-17T17:51:06.845Z,59.88
2019-02-17T17:53:36.510Z,60.17
2019-02-17T17:56:06.193Z,60.40
2019-02-17T17:58:35.886Z,60.63
2019-02-17T18:01:07.740Z,60.84
2019-02-17T18:03:37.034Z,61.06
2019-02-17T18:06:06.711Z,61.33
2019-02-17T18:08:36.406Z,61.62
2019-02-17T18:11:06.107Z,61.78
2019-02-17T18:13:35.788Z,61.95
2019-02-17T18:16:05.467Z,62.07
2019-02-17T18:18:35.327Z,62.22
2019-02-17T18:21:05.218Z,62.46
2019-02-17T18:23:34.889Z,62.52
2019-02-17T18:26:04.936Z,62.73
2019-02-17T18:28:34.850Z,62.85
2019-02-17T18:31:04.965Z,63.00
2019-02-17T18:33:34.635Z,63.29
2019-02-17T18:36:05.357Z,63.71
2019-02-17T18:38:35.038Z,63.92
2019-02-17T18:41:05.588Z,64.17
2019-02-17T18:43:35.264Z,64.40
2019-02-17T18:46:05.344Z,64.65
2019-02-17T18:48:35.061Z,64.77
2019-02-17T18:51:05.188Z,64.76
2019-02-17T18:53:34.862Z,65.01
2019-02-17T18:56:05.111Z,65.18
2019-02-17T18:58:34.795Z,65.45
2019-02-17T19:01:04.540Z,65.72
2019-02-17T19:03:34.238Z,66.01
2019-02-17T19:06:04.845Z,66.14
2019-02-17T19:08:34.758Z,66.19
2019-02-17T19:11:05.421Z,66.31
2019-02-17T19:13:35.366Z,66.41
2019-02-17T19:16:08.769Z,66.42
2019-02-17T19:18:38.856Z,66.41
2019-02-17T19:21:08.530Z,66.49
2019-02-17T19:23:38.197Z,66.72
2019-02-17T19:26:07.875Z,66.90
2019-02-17T19:28:37.537Z,66.98
2019-02-17T19:31:07.359Z,67.09
2019-02-17T19:33:37.044Z,67.31
2019-02-17T19:36:06.729Z,67.48
2019-02-17T19:38:36.406Z,67.65
2019-02-17T19:41:06.090Z,67.85
2019-02-17T19:43:35.956Z,68.02
2019-02-17T19:46:05.634Z,68.19
2019-02-17T19:48:35.335Z,68.26
2019-02-17T19:51:05.322Z,68.23
2019-02-17T19:53:35.469Z,68.29
2019-02-17T19:56:07.402Z,68.40
2019-02-17T19:58:36.540Z,68.43
2019-02-17T20:01:06.285Z,68.69
2019-02-17T20:03:44.308Z,68.75
2019-02-17T20:06:15.763Z,68.71
2019-02-17T20:08:45.470Z,68.75
2019-02-17T20:11:15.142Z,68.75
2019-02-17T20:13:44.829Z,68.74
2019-02-17T20:16:15.027Z,68.67
2019-02-17T20:18:45.098Z,68.66
2019-02-17T20:21:14.768Z,68.48
2019-02-17T20:23:44.454Z,68.24
2019-02-17T20:26:14.430Z,67.94
2019-02-17T20:28:44.108Z,67.82
2019-02-17T20:31:13.795Z,67.58
2019-02-17T20:33:43.488Z,67.31
2019-02-17T20:36:13.173Z,66.98
2019-02-17T20:38:43.108Z,66.58
2019-02-17T20:41:14.904Z,66.18
2019-02-17T20:43:44.830Z,65.96
2019-02-17T20:46:14.523Z,65.67
2019-02-17T20:48:44.220Z,65.26
2019-02-17T20:51:13.987Z,64.90
2019-02-17T20:53:44.521Z,64.52
2019-02-17T20:56:14.225Z,64.15
2019-02-17T20:58:44.951Z,63.85
2019-02-17T21:01:14.757Z,63.54
2019-02-17T21:03:44.754Z,63.25
2019-02-17T21:06:14.434Z,63.16
2019-02-17T21:08:44.099Z,62.97
2019-02-17T21:11:14.019Z,62.88
2019-02-17T21:13:43.707Z,62.78
2019-02-17T21:16:13.377Z,62.72
2019-02-17T21:18:43.051Z,62.72
2019-02-17T21:21:12.729Z,62.62
2019-02-17T21:23:42.411Z,62.50
2019-02-17T21:26:12.404Z,62.46
2019-02-17T21:28:42.072Z,62.43
2019-02-17T21:31:11.766Z,62.41
2019-02-17T21:33:41.428Z,62.37
2019-02-17T21:36:11.099Z,62.39
2019-02-17T21:38:40.768Z,62.35
2019-02-17T21:41:10.467Z,62.34
2019-02-17T21:43:40.141Z,62.38
2019-02-17T21:46:09.810Z,62.38
2019-02-17T21:48:40.342Z,62.38
2019-02-17T21:51:10.045Z,62.37
2019-02-17T21:53:39.709Z,62.30
2019-02-17T21:56:09.378Z,62.33
2019-02-17T21:58:39.060Z,62.36
2019-02-17T22:01:08.721Z,62.39
2019-02-17T22:03:47.611Z,62.44
2019-02-17T22:06:17.271Z,62.44
2019-02-17T22:08:46.957Z,62.41
2019-02-17T22:11:16.627Z,62.39
2019-02-17T22:13:46.296Z,62.50
2019-02-17T22:16:15.964Z,62.54
2019-02-17T22:18:45.624Z,62.64
2019-02-17T22:21:15.561Z,62.51
2019-02-17T22:23:45.225Z,62.51
2019-02-17T22:26:14.903Z,62.38
2019-02-17T22:28:44.582Z,62.36
2019-02-17T22:31:14.334Z,62.28
2019-02-17T22:33:44.035Z,62.22
2019-02-17T22:36:13.767Z,62.05
2019-02-17T22:38:43.436Z,62.11
2019-02-17T22:41:13.118Z,62.05
2019-02-17T22:43:42.955Z,62.07
2019-02-17T22:46:12.625Z,62.03
2019-02-17T22:48:42.292Z,62.03
2019-02-17T22:51:11.990Z,62.12
2019-02-17T22:53:43.949Z,62.18
2019-02-17T22:56:14.085Z,62.19
2019-02-17T22:58:43.748Z,62.20
2019-02-17T23:01:18.429Z,62.16
2019-02-17T23:03:49.913Z,62.19
2019-02-17T23:06:19.665Z,62.21
2019-02-17T23:08:49.404Z,62.16
2019-02-17T23:11:19.088Z,62.26
2019-02-17T23:13:48.756Z,62.26
2019-02-17T23:16:18.496Z,62.29
2019-02-17T23:18:48.176Z,62.30
2019-02-17T23:21:17.833Z,62.35
2019-02-17T23:23:47.503Z,62.34
2019-02-17T23:26:17.323Z,62.35
2019-02-17T23:28:46.988Z,62.40
2019-02-17T23:31:16.653Z,62.38
2019-02-17T23:33:46.320Z,62.46
2019-02-17T23:36:16.169Z,62.51
2019-02-17T23:38:45.838Z,62.60
2019-02-17T23:41:15.588Z,62.54
2019-02-17T23:43:45.274Z,62.39
2019-02-17T23:46:14.957Z,62.24
2019-02-17T23:48:44.877Z,62.14
2019-02-17T23:51:14.557Z,62.11
2019-02-17T23:53:44.222Z,62.08
2019-02-17T23:56:13.912Z,62.06
2019-02-17T23:58:43.612Z,62.06
